Time;durP1;ratioP1;P1;durP2;ratioP2;P2;SDS_P1;SDS_P2;PMS_P1;PMS_P2;Temp;Humidity;BMP_temperature;BMP_pressure;BME280_temperature;BME280_humidity;BME280_pressure;Samples;Min_cycle;Max_cycle;Signal;HPM_P1;HPM_P2
2022/12/16 00:02:14;;;;;;;55.10;31.27;;;0.60;99.90;;;;;;5120339;27;20043;-61
2022/12/16 00:04:40;;;;;;;42.13;24.50;;;0.70;99.90;;;;;;5083766;27;20481;-62
2022/12/16 00:07:06;;;;;;;45.63;25.65;;;0.70;99.90;;;;;;5125311;27;20126;-62
2022/12/16 00:09:31;;;;;;;38.17;21.27;;;0.70;99.90;;;;;;5121808;27;20490;-61
2022/12/16 00:11:57;;;;;;;50.28;26.33;;;0.80;99.90;;;;;;5110369;27;20083;-61
2022/12/16 00:14:23;;;;;;;43.08;23.40;;;0.90;99.90;;;;;;5109486;27;20039;-61
2022/12/16 00:16:48;;;;;;;57.17;29.13;;;1.00;99.90;;;;;;5110914;27;20035;-61
2022/12/16 00:19:15;;;;;;;61.72;29.65;;;1.10;99.90;;;;;;5110947;27;20051;-61
2022/12/16 00:21:40;;;;;;;54.58;28.65;;;1.10;99.90;;;;;;5100008;27;20486;-61
2022/12/16 00:24:06;;;;;;;60.63;30.70;;;1.20;99.90;;;;;;5108186;27;20043;-62
2022/12/16 00:26:32;;;;;;;53.75;26.20;;;1.20;99.90;;;;;;5108170;28;20500;-61
2022/12/16 00:28:58;;;;;;;55.50;28.50;;;1.20;99.90;;;;;;5109238;27;20036;-61
2022/12/16 00:31:25;;;;;;;53.10;27.83;;;1.10;99.90;;;;;;5107920;28;20042;-62
2022/12/16 00:33:54;;;;;;;50.38;25.02;;;1.10;99.90;;;;;;5090884;28;20051;-61
2022/12/16 00:36:23;;;;;;;45.45;22.45;;;1.10;99.90;;;;;;5090124;28;20154;-61
2022/12/16 00:38:51;;;;;;;50.90;24.20;;;1.10;99.90;;;;;;5089795;28;20044;-61
2022/12/16 00:41:17;;;;;;;51.03;25.98;;;1.20;99.90;;;;;;5089818;28;20051;-61
2022/12/16 00:43:43;;;;;;;58.28;24.85;;;1.20;99.90;;;;;;5120124;27;20055;-62
2022/12/16 00:46:09;;;;;;;55.60;25.50;;;1.30;99.90;;;;;;5114203;27;20043;-62
2022/12/16 00:48:35;;;;;;;55.92;23.60;;;1.40;99.90;;;;;;5107833;28;20383;-61
2022/12/16 00:51:00;;;;;;;53.72;24.50;;;1.40;99.90;;;;;;5107849;27;20455;-61
2022/12/16 00:53:27;;;;;;;53.97;24.83;;;1.50;99.90;;;;;;5107587;28;20127;-62
2022/12/16 00:56:10;;;;;;;44.75;21.33;;;1.60;99.90;;;;;;5119646;27;20040;-61
2022/12/16 00:58:37;;;;;;;48.45;24.55;;;1.80;99.90;;;;;;5108913;27;20050;-61
2022/12/16 01:01:04;;;;;;;41.28;21.98;;;2.00;99.90;;;;;;5093073;27;20132;-62
2022/12/16 01:03:29;;;;;;;44.67;20.92;;;2.00;99.90;;;;;;5114343;27;20063;-61
2022/12/16 01:05:55;;;;;;;38.15;21.60;;;2.10;99.90;;;;;;5112917;27;20078;-61
2022/12/16 01:08:21;;;;;;;29.23;18.05;;;2.10;99.90;;;;;;5113064;27;20136;-61
2022/12/16 01:10:52;;;;;;;27.00;15.98;;;2.20;99.90;;;;;;5114787;27;20096;-62
2022/12/16 01:13:18;;;;;;;27.65;14.82;;;2.20;99.90;;;;;;5127948;27;20047;-61
2022/12/16 01:15:44;;;;;;;28.40;16.52;;;2.20;99.90;;;;;;5127842;27;20246;-61
2022/12/16 01:18:10;;;;;;;32.05;17.33;;;2.30;99.90;;;;;;5122604;27;20035;-61
2022/12/16 01:20:37;;;;;;;27.38;13.93;;;2.30;99.90;;;;;;5108401;27;20059;-62
2022/12/16 01:23:03;;;;;;;28.48;16.45;;;2.30;99.90;;;;;;5110472;27;20035;-61
2022/12/16 01:25:29;;;;;;;26.60;14.45;;;2.30;99.90;;;;;;5118381;27;20115;-61
2022/12/16 01:27:55;;;;;;;18.63;10.88;;;2.30;99.90;;;;;;5107521;28;20122;-61
2022/12/16 01:30:21;;;;;;;21.63;13.32;;;2.30;99.90;;;;;;5110031;27;20045;-61
2022/12/16 01:32:47;;;;;;;25.10;14.48;;;2.40;99.90;;;;;;5110156;27;20814;-61
2022/12/16 01:35:12;;;;;;;24.38;12.73;;;2.40;99.90;;;;;;5105706;28;20057;-61
2022/12/16 01:37:39;;;;;;;26.77;12.57;;;2.50;99.90;;;;;;5107152;28;20082;-61
2022/12/16 01:40:06;;;;;;;21.10;12.00;;;2.50;99.90;;;;;;5107854;27;20039;-61
2022/12/16 01:42:32;;;;;;;22.67;12.43;;;2.50;99.90;;;;;;5087909;28;20540;-61
2022/12/16 01:45:23;;;;;;;24.20;11.88;;;2.60;99.90;;;;;;5107324;28;20096;-61
2022/12/16 01:47:52;;;;;;;22.95;11.65;;;2.60;99.90;;;;;;5106401;28;20062;-61
2022/12/16 01:50:18;;;;;;;20.48;12.13;;;2.60;99.90;;;;;;5107394;27;20039;-61
2022/12/16 01:52:55;;;;;;;12.65;7.55;;;2.70;99.90;;;;;;5106225;28;20039;-61
2022/12/16 01:55:27;;;;;;;15.52;10.10;;;2.80;99.90;;;;;;5107249;28;20080;-61
2022/12/16 01:58:06;;;;;;;20.27;9.85;;;2.80;99.90;;;;;;5106700;28;20047;-61
2022/12/16 02:00:33;;;;;;;23.40;11.50;;;2.70;99.90;;;;;;5106118;27;20039;-61
2022/12/16 02:02:59;;;;;;;18.80;11.90;;;2.80;99.90;;;;;;5089364;28;20090;-61
2022/12/16 02:05:26;;;;;;;22.90;13.23;;;2.80;99.90;;;;;;5107200;27;20047;-61
2022/12/16 02:08:08;;;;;;;21.35;12.48;;;2.80;99.90;;;;;;5107093;28;20556;-61
2022/12/16 02:10:43;;;;;;;23.92;13.35;;;2.80;99.90;;;;;;5105916;28;20569;-61
2022/12/16 02:13:14;;;;;;;28.90;13.30;;;2.80;99.90;;;;;;5115321;27;20505;-61
2022/12/16 02:15:49;;;;;;;23.73;12.77;;;2.80;99.90;;;;;;5088149;28;20043;-61
2022/12/16 02:18:27;;;;;;;26.30;14.45;;;2.80;99.90;;;;;;5088391;28;20043;-61
2022/12/16 02:21:44;;;;;;;24.52;15.10;;;2.90;99.90;;;;;;5106169;28;20151;-61
2022/12/16 02:24:26;;;;;;;27.15;14.48;;;2.90;99.90;;;;;;5066406;28;20047;-61
2022/12/16 02:27:16;;;;;;;31.17;17.13;;;2.90;99.90;;;;;;5087414;28;20043;-61
2022/12/16 02:29:45;;;;;;;;;;;2.90;99.90;;;;;;5106727;28;20062;-61
2022/12/16 02:32:19;;;;;;;30.13;17.92;;;2.90;99.90;;;;;;5106710;28;20044;-61
2022/12/16 02:34:49;;;;;;;35.15;18.92;;;2.80;99.90;;;;;;5072775;28;20050;-61
2022/12/16 02:37:33;;;;;;;40.47;22.47;;;2.90;99.90;;;;;;5106377;28;20044;-61
2022/12/16 02:40:02;;;;;;;33.60;21.45;;;2.90;99.90;;;;;;5105571;28;20276;-61
2022/12/16 02:42:30;;;;;;;32.28;17.60;;;3.00;99.90;;;;;;5088335;28;20042;-61
2022/12/16 02:45:20;;;;;;;50.20;24.63;;;2.90;99.90;;;;;;5105437;28;20493;-61
2022/12/16 02:47:46;;;;;;;44.88;28.23;;;2.90;99.90;;;;;;5110198;28;20060;-61
2022/12/16 02:50:26;;;;;;;48.08;25.52;;;2.90;99.90;;;;;;5092171;28;20062;-61
2022/12/16 02:52:54;;;;;;;57.47;31.40;;;3.00;99.90;;;;;;5110003;27;20062;-61
2022/12/16 02:55:31;;;;;;;61.28;33.08;;;3.00;99.90;;;;;;5110869;28;20398;-61
2022/12/16 02:58:10;;;;;;;66.85;28.98;;;3.10;99.90;;;;;;5110208;28;20044;-61
2022/12/16 03:01:10;;;;;;;57.78;28.25;;;3.10;99.90;;;;;;5110458;28;20212;-61
2022/12/16 03:04:06;;;;;;;73.88;29.50;;;3.10;99.90;;;;;;5095066;27;20051;-61
2022/12/16 03:06:35;;;;;;;55.80;26.05;;;3.10;99.90;;;;;;5107207;27;20059;-61
2022/12/16 03:09:05;;;;;;;46.08;21.67;;;3.10;99.90;;;;;;5119600;27;20430;-61
2022/12/16 03:11:32;;;;;;;63.45;24.17;;;3.10;99.90;;;;;;5106201;27;20501;-61
2022/12/16 03:14:00;;;;;;;48.08;21.02;;;3.10;99.90;;;;;;5114682;27;20540;-61
2022/12/16 03:16:31;;;;;;;57.42;21.90;;;3.00;99.90;;;;;;5108498;27;20071;-61
2022/12/16 03:19:10;;;;;;;48.28;19.20;;;2.90;99.90;;;;;;5115112;27;20052;-61
2022/12/16 03:21:58;;;;;;;48.00;21.20;;;2.90;99.90;;;;;;5111966;27;20055;-61
2022/12/16 03:24:25;;;;;;;42.15;19.00;;;2.80;99.90;;;;;;5123213;27;20039;-61
2022/12/16 03:27:01;;;;;;;49.53;20.92;;;2.80;99.90;;;;;;5116159;27;20077;-61
2022/12/16 03:29:40;;;;;;;45.00;21.60;;;2.80;99.90;;;;;;5117157;27;20042;-61
2022/12/16 03:32:25;;;;;;;52.65;22.98;;;2.70;99.90;;;;;;5119848;27;20124;-62
2022/12/16 03:34:56;;;;;;;44.83;21.30;;;2.70;99.90;;;;;;5129904;27;20046;-61
2022/12/16 03:37:28;;;;;;;45.22;22.75;;;2.70;99.90;;;;;;5129982;27;20485;-61
2022/12/16 03:40:00;;;;;;;39.22;18.88;;;2.60;99.90;;;;;;5129328;27;20263;-61
2022/12/16 03:42:26;;;;;;;45.75;19.67;;;2.50;99.90;;;;;;5127503;27;20594;-61
2022/12/16 03:44:52;;;;;;;39.65;16.75;;;2.30;99.90;;;;;;5128848;27;20471;-61
2022/12/16 03:47:18;;;;;;;29.80;17.65;;;2.20;99.90;;;;;;5130485;27;20115;-61
2022/12/16 03:49:44;;;;;;;32.30;17.67;;;2.00;99.90;;;;;;5129794;27;20128;-61
2022/12/16 03:52:10;;;;;;;36.33;17.05;;;1.80;99.90;;;;;;5090124;28;20047;-61
2022/12/16 03:54:36;;;;;;;32.00;18.40;;;1.70;99.90;;;;;;5122176;27;20032;-61
2022/12/16 03:57:02;;;;;;;31.58;17.85;;;1.60;99.90;;;;;;5128017;27;20092;-61
2022/12/16 03:59:28;;;;;;;34.55;18.52;;;1.50;99.90;;;;;;5129705;27;20086;-61
2022/12/16 04:01:53;;;;;;;36.67;20.05;;;1.30;99.90;;;;;;5100227;27;20481;-61
2022/12/16 04:04:20;;;;;;;37.40;18.65;;;1.30;99.90;;;;;;5129931;27;20035;-61
2022/12/16 04:07:18;;;;;;;38.10;20.65;;;1.20;99.90;;;;;;5110532;27;20461;-61
2022/12/16 04:09:31;;;;;;;32.13;19.38;;;1.10;99.90;;;;;;5122994;27;20040;-61
2022/12/16 04:25:45;;;;;;;33.67;18.60;;;0.80;99.90;;;;;;5109089;28;20055;-61
2022/12/16 04:28:11;;;;;;;35.63;21.00;;;0.80;99.90;;;;;;5107831;28;20366;-61
2022/12/16 04:30:36;;;;;;;33.75;19.40;;;0.80;99.90;;;;;;5109132;28;20052;-61
